Terminal Aerodrome Forecast
Issued by NWS Wilmington, OH

Home | Current Version | Previous Version | Text Only | Print | Product List | Glossary On
Versions: 1 2 3 4 5 6 7 8 9 10 11 12 13 14 15
000
FTUS41 KILN 070500 RRA
TAFCMH
TAF
KCMH 070545Z 0706/0806 16005KT P6SM BKN250
     FM071300 21012KT P6SM BKN035
     FM071700 22014G23KT P6SM VCTS BKN040CB
      TEMPO 0720/0724 5SM -TSRA BR OVC025CB
     FM080000 24011KT 5SM -SHRA BR VCTS OVC025CB=

USA.gov is the U.S. government's official web portal to all federal, state and local government web resources and services.